sensor_id;sensor_type;location;lat;lon;timestamp;P1;durP1;ratioP1;P2;durP2;ratioP2
72127;SDS011;60000;51.030;7.024;2023-08-06T00:00:20;6.63;;;2.20;;
72127;SDS011;60000;51.030;7.024;2023-08-06T00:02:46;5.32;;;2.30;;
72127;SDS011;60000;51.030;7.024;2023-08-06T00:05:12;5.40;;;2.17;;
72127;SDS011;60000;51.030;7.024;2023-08-06T00:07:37;5.20;;;2.00;;
72127;SDS011;60000;51.030;7.024;2023-08-06T00:10:02;4.87;;;1.93;;
72127;SDS011;60000;51.030;7.024;2023-08-06T00:12:28;6.90;;;2.05;;
72127;SDS011;60000;51.030;7.024;2023-08-06T00:14:53;6.03;;;2.53;;
72127;SDS011;60000;51.030;7.024;2023-08-06T00:17:19;5.73;;;2.10;;
72127;SDS011;60000;51.030;7.024;2023-08-06T00:19:44;4.63;;;1.97;;
72127;SDS011;60000;51.030;7.024;2023-08-06T00:22:09;5.65;;;2.40;;
72127;SDS011;60000;51.030;7.024;2023-08-06T00:24:35;5.32;;;2.40;;
72127;SDS011;60000;51.030;7.024;2023-08-06T00:27:01;5.27;;;2.37;;
72127;SDS011;60000;51.030;7.024;2023-08-06T00:29:26;6.35;;;2.00;;
72127;SDS011;60000;51.030;7.024;2023-08-06T00:31:52;4.87;;;2.30;;
72127;SDS011;60000;51.030;7.024;2023-08-06T00:34:17;6.67;;;2.10;;
72127;SDS011;60000;51.030;7.024;2023-08-06T00:36:42;5.60;;;2.30;;
72127;SDS011;60000;51.030;7.024;2023-08-06T00:39:08;5.90;;;2.40;;
72127;SDS011;60000;51.030;7.024;2023-08-06T00:41:33;5.90;;;2.00;;
72127;SDS011;60000;51.030;7.024;2023-08-06T00:43:58;5.20;;;2.13;;
72127;SDS011;60000;51.030;7.024;2023-08-06T00:46:24;5.40;;;2.30;;
72127;SDS011;60000;51.030;7.024;2023-08-06T00:48:49;5.30;;;2.13;;
72127;SDS011;60000;51.030;7.024;2023-08-06T00:51:15;7.25;;;2.45;;
72127;SDS011;60000;51.030;7.024;2023-08-06T00:53:41;7.33;;;2.27;;
72127;SDS011;60000;51.030;7.024;2023-08-06T00:56:07;5.10;;;2.53;;
72127;SDS011;60000;51.030;7.024;2023-08-06T00:58:34;8.77;;;2.80;;
72127;SDS011;60000;51.030;7.024;2023-08-06T01:01:00;6.75;;;2.63;;
72127;SDS011;60000;51.030;7.024;2023-08-06T01:03:26;7.17;;;2.50;;
72127;SDS011;60000;51.030;7.024;2023-08-06T01:05:51;6.18;;;2.35;;
72127;SDS011;60000;51.030;7.024;2023-08-06T01:14:18;4.80;;;1.70;;
72127;SDS011;60000;51.030;7.024;2023-08-06T01:16:51;6.35;;;2.40;;
72127;SDS011;60000;51.030;7.024;2023-08-06T01:19:18;6.40;;;2.38;;
72127;SDS011;60000;51.030;7.024;2023-08-06T01:21:44;5.07;;;2.20;;
72127;SDS011;60000;51.030;7.024;2023-08-06T01:24:09;6.43;;;2.60;;
72127;SDS011;60000;51.030;7.024;2023-08-06T01:26:45;5.40;;;2.40;;
72127;SDS011;60000;51.030;7.024;2023-08-06T01:29:22;5.50;;;2.20;;
72127;SDS011;60000;51.030;7.024;2023-08-06T01:31:48;7.03;;;2.50;;
72127;SDS011;60000;51.030;7.024;2023-08-06T01:34:25;7.40;;;2.63;;
72127;SDS011;60000;51.030;7.024;2023-08-06T01:36:54;6.93;;;2.38;;
72127;SDS011;60000;51.030;7.024;2023-08-06T01:39:19;7.22;;;2.65;;
72127;SDS011;60000;51.030;7.024;2023-08-06T01:41:46;5.47;;;2.22;;
72127;SDS011;60000;51.030;7.024;2023-08-06T01:44:12;5.03;;;2.20;;
72127;SDS011;60000;51.030;7.024;2023-08-06T01:46:37;5.32;;;2.17;;
72127;SDS011;60000;51.030;7.024;2023-08-06T01:49:03;5.77;;;2.63;;
72127;SDS011;60000;51.030;7.024;2023-08-06T01:51:28;8.83;;;2.60;;
72127;SDS011;60000;51.030;7.024;2023-08-06T01:53:53;5.73;;;2.60;;
72127;SDS011;60000;51.030;7.024;2023-08-06T01:56:18;8.17;;;2.50;;
72127;SDS011;60000;51.030;7.024;2023-08-06T01:58:44;5.30;;;2.20;;
72127;SDS011;60000;51.030;7.024;2023-08-06T02:01:09;6.93;;;2.47;;
72127;SDS011;60000;51.030;7.024;2023-08-06T02:03:34;5.73;;;2.50;;
72127;SDS011;60000;51.030;7.024;2023-08-06T02:06:00;5.23;;;2.23;;
72127;SDS011;60000;51.030;7.024;2023-08-06T02:08:25;6.05;;;2.30;;
72127;SDS011;60000;51.030;7.024;2023-08-06T02:10:52;4.93;;;2.33;;
72127;SDS011;60000;51.030;7.024;2023-08-06T02:13:18;5.18;;;2.25;;
72127;SDS011;60000;51.030;7.024;2023-08-06T02:15:44;5.77;;;2.50;;
72127;SDS011;60000;51.030;7.024;2023-08-06T02:18:12;5.53;;;2.15;;
72127;SDS011;60000;51.030;7.024;2023-08-06T02:20:38;6.70;;;2.30;;
72127;SDS011;60000;51.030;7.024;2023-08-06T02:23:03;4.67;;;2.10;;
72127;SDS011;60000;51.030;7.024;2023-08-06T02:25:29;5.10;;;2.40;;
72127;SDS011;60000;51.030;7.024;2023-08-06T02:27:54;4.90;;;2.17;;
72127;SDS011;60000;51.030;7.024;2023-08-06T02:30:19;5.00;;;1.97;;
72127;SDS011;60000;51.030;7.024;2023-08-06T02:32:44;5.57;;;2.30;;
72127;SDS011;60000;51.030;7.024;2023-08-06T02:35:10;4.57;;;2.03;;
72127;SDS011;60000;51.030;7.024;2023-08-06T02:37:35;5.78;;;2.33;;
72127;SDS011;60000;51.030;7.024;2023-08-06T02:40:01;5.27;;;2.00;;
72127;SDS011;60000;51.030;7.024;2023-08-06T02:42:27;4.93;;;2.00;;
72127;SDS011;60000;51.030;7.024;2023-08-06T02:44:52;6.60;;;2.10;;
72127;SDS011;60000;51.030;7.024;2023-08-06T02:47:20;5.97;;;2.05;;
72127;SDS011;60000;51.030;7.024;2023-08-06T02:49:45;6.70;;;2.10;;
72127;SDS011;60000;51.030;7.024;2023-08-06T02:52:11;4.87;;;2.00;;
72127;SDS011;60000;51.030;7.024;2023-08-06T02:54:36;4.95;;;2.10;;
72127;SDS011;60000;51.030;7.024;2023-08-06T02:57:01;4.35;;;1.83;;
72127;SDS011;60000;51.030;7.024;2023-08-06T02:59:27;5.83;;;2.20;;
72127;SDS011;60000;51.030;7.024;2023-08-06T03:01:52;5.27;;;1.80;;
72127;SDS011;60000;51.030;7.024;2023-08-06T03:04:17;6.63;;;2.33;;
72127;SDS011;60000;51.030;7.024;2023-08-06T03:06:43;5.40;;;1.97;;
72127;SDS011;60000;51.030;7.024;2023-08-06T03:09:08;4.77;;;2.00;;
72127;SDS011;60000;51.030;7.024;2023-08-06T03:11:33;5.93;;;1.95;;
72127;SDS011;60000;51.030;7.024;2023-08-06T03:13:59;5.27;;;2.00;;
72127;SDS011;60000;51.030;7.024;2023-08-06T03:16:24;4.90;;;2.00;;
72127;SDS011;60000;51.030;7.024;2023-08-06T03:18:49;4.50;;;1.77;;
72127;SDS011;60000;51.030;7.024;2023-08-06T03:21:15;5.77;;;2.10;;
72127;SDS011;60000;51.030;7.024;2023-08-06T03:23:40;5.33;;;1.83;;
72127;SDS011;60000;51.030;7.024;2023-08-06T03:26:05;5.90;;;2.07;;
72127;SDS011;60000;51.030;7.024;2023-08-06T03:28:31;5.10;;;2.00;;
72127;SDS011;60000;51.030;7.024;2023-08-06T03:31:02;5.20;;;1.90;;
72127;SDS011;60000;51.030;7.024;2023-08-06T03:33:28;5.20;;;2.20;;
72127;SDS011;60000;51.030;7.024;2023-08-06T03:35:53;6.47;;;2.22;;
72127;SDS011;60000;51.030;7.024;2023-08-06T03:38:19;5.30;;;2.00;;
72127;SDS011;60000;51.030;7.024;2023-08-06T03:40:44;5.97;;;2.50;;
72127;SDS011;60000;51.030;7.024;2023-08-06T03:43:10;5.57;;;2.30;;
72127;SDS011;60000;51.030;7.024;2023-08-06T03:45:36;5.43;;;2.30;;
72127;SDS011;60000;51.030;7.024;2023-08-06T03:48:01;6.20;;;2.37;;
72127;SDS011;60000;51.030;7.024;2023-08-06T03:50:26;6.20;;;2.30;;
72127;SDS011;60000;51.030;7.024;2023-08-06T03:52:51;7.50;;;2.77;;
72127;SDS011;60000;51.030;7.024;2023-08-06T03:55:17;5.30;;;2.40;;
72127;SDS011;60000;51.030;7.024;2023-08-06T03:57:42;5.60;;;1.90;;
72127;SDS011;60000;51.030;7.024;2023-08-06T04:00:07;4.70;;;2.20;;
72127;SDS011;60000;51.030;7.024;2023-08-06T04:02:33;5.53;;;2.17;;
72127;SDS011;60000;51.030;7.024;2023-08-06T04:04:59;5.40;;;2.20;;
72127;SDS011;60000;51.030;7.024;2023-08-06T04:07:25;5.45;;;2.17;;
72127;SDS011;60000;51.030;7.024;2023-08-06T04:09:52;5.13;;;2.10;;
72127;SDS011;60000;51.030;7.024;2023-08-06T04:12:25;5.13;;;2.00;;
72127;SDS011;60000;51.030;7.024;2023-08-06T04:14:51;5.78;;;2.30;;
72127;SDS011;60000;51.030;7.024;2023-08-06T04:17:20;4.85;;;2.20;;
72127;SDS011;60000;51.030;7.024;2023-08-06T04:19:50;5.82;;;2.20;;
72127;SDS011;60000;51.030;7.024;2023-08-06T04:22:16;6.72;;;2.55;;
72127;SDS011;60000;51.030;7.024;2023-08-06T04:24:42;6.75;;;2.38;;
72127;SDS011;60000;51.030;7.024;2023-08-06T04:27:08;7.83;;;2.43;;
72127;SDS011;60000;51.030;7.024;2023-08-06T04:29:34;5.10;;;2.10;;
72127;SDS011;60000;51.030;7.024;2023-08-06T04:31:59;5.37;;;2.10;;
72127;SDS011;60000;51.030;7.024;2023-08-06T04:34:25;4.93;;;1.83;;
72127;SDS011;60000;51.030;7.024;2023-08-06T04:36:50;5.47;;;2.10;;
72127;SDS011;60000;51.030;7.024;2023-08-06T04:39:15;5.40;;;1.83;;
72127;SDS011;60000;51.030;7.024;2023-08-06T04:41:40;4.60;;;1.70;;
72127;SDS011;60000;51.030;7.024;2023-08-06T04:44:06;5.70;;;1.67;;
72127;SDS011;60000;51.030;7.024;2023-08-06T04:46:31;4.30;;;1.53;;
72127;SDS011;60000;51.030;7.024;2023-08-06T04:48:56;4.20;;;1.60;;
72127;SDS011;60000;51.030;7.024;2023-08-06T04:51:22;4.93;;;2.00;;
72127;SDS011;60000;51.030;7.024;2023-08-06T04:53:47;7.87;;;2.20;;
72127;SDS011;60000;51.030;7.024;2023-08-06T04:56:12;5.07;;;2.10;;
72127;SDS011;60000;51.030;7.024;2023-08-06T04:58:38;5.40;;;1.97;;
72127;SDS011;60000;51.030;7.024;2023-08-06T05:01:03;5.13;;;1.95;;
72127;SDS011;60000;51.030;7.024;2023-08-06T05:03:28;4.77;;;1.80;;
72127;SDS011;60000;51.030;7.024;2023-08-06T05:05:53;6.97;;;2.17;;
72127;SDS011;60000;51.030;7.024;2023-08-06T05:08:19;4.87;;;1.87;;
72127;SDS011;60000;51.030;7.024;2023-08-06T05:10:45;5.43;;;1.90;;
72127;SDS011;60000;51.030;7.024;2023-08-06T05:13:10;4.90;;;1.85;;
72127;SDS011;60000;51.030;7.024;2023-08-06T05:15:36;4.50;;;1.67;;
72127;SDS011;60000;51.030;7.024;2023-08-06T05:18:01;5.70;;;1.90;;
72127;SDS011;60000;51.030;7.024;2023-08-06T05:20:26;4.15;;;1.88;;
72127;SDS011;60000;51.030;7.024;2023-08-06T05:22:52;4.70;;;1.70;;
72127;SDS011;60000;51.030;7.024;2023-08-06T05:25:17;4.10;;;1.70;;
72127;SDS011;60000;51.030;7.024;2023-08-06T05:27:42;3.67;;;1.40;;
72127;SDS011;60000;51.030;7.024;2023-08-06T05:30:08;5.57;;;1.97;;
72127;SDS011;60000;51.030;7.024;2023-08-06T05:32:34;5.25;;;1.90;;
72127;SDS011;60000;51.030;7.024;2023-08-06T05:34:59;4.30;;;1.60;;
72127;SDS011;60000;51.030;7.024;2023-08-06T05:37:24;4.70;;;1.80;;
72127;SDS011;60000;51.030;7.024;2023-08-06T05:39:50;5.43;;;1.93;;
72127;SDS011;60000;51.030;7.024;2023-08-06T05:42:15;4.37;;;1.50;;
72127;SDS011;60000;51.030;7.024;2023-08-06T05:44:41;4.32;;;1.60;;
72127;SDS011;60000;51.030;7.024;2023-08-06T05:47:06;4.40;;;1.70;;
72127;SDS011;60000;51.030;7.024;2023-08-06T05:49:31;5.03;;;1.73;;
72127;SDS011;60000;51.030;7.024;2023-08-06T05:51:57;5.17;;;1.90;;
72127;SDS011;60000;51.030;7.024;2023-08-06T05:54:22;5.87;;;1.53;;
72127;SDS011;60000;51.030;7.024;2023-08-06T05:56:47;4.77;;;1.60;;
72127;SDS011;60000;51.030;7.024;2023-08-06T05:59:13;3.92;;;1.60;;
72127;SDS011;60000;51.030;7.024;2023-08-06T06:01:38;3.83;;;1.43;;
72127;SDS011;60000;51.030;7.024;2023-08-06T06:04:03;3.87;;;1.60;;
72127;SDS011;60000;51.030;7.024;2023-08-06T06:06:28;4.90;;;1.90;;
72127;SDS011;60000;51.030;7.024;2023-08-06T06:08:54;4.90;;;2.00;;
72127;SDS011;60000;51.030;7.024;2023-08-06T06:11:19;5.07;;;1.70;;
72127;SDS011;60000;51.030;7.024;2023-08-06T06:13:47;5.75;;;1.83;;
72127;SDS011;60000;51.030;7.024;2023-08-06T06:16:14;6.65;;;2.05;;
72127;SDS011;60000;51.030;7.024;2023-08-06T06:18:39;5.30;;;1.97;;
72127;SDS011;60000;51.030;7.024;2023-08-06T06:21:05;4.00;;;1.60;;
72127;SDS011;60000;51.030;7.024;2023-08-06T06:23:30;5.17;;;1.70;;
72127;SDS011;60000;51.030;7.024;2023-08-06T06:25:55;4.50;;;1.63;;
72127;SDS011;60000;51.030;7.024;2023-08-06T06:28:21;4.70;;;1.97;;
72127;SDS011;60000;51.030;7.024;2023-08-06T06:30:46;4.30;;;1.50;;
72127;SDS011;60000;51.030;7.024;2023-08-06T06:33:11;5.33;;;1.67;;
72127;SDS011;60000;51.030;7.024;2023-08-06T06:35:37;5.20;;;1.70;;
72127;SDS011;60000;51.030;7.024;2023-08-06T06:38:02;4.53;;;1.92;;
72127;SDS011;60000;51.030;7.024;2023-08-06T06:40:28;5.23;;;2.10;;
72127;SDS011;60000;51.030;7.024;2023-08-06T06:42:53;4.30;;;1.90;;
72127;SDS011;60000;51.030;7.024;2023-08-06T06:45:18;4.90;;;1.70;;
72127;SDS011;60000;51.030;7.024;2023-08-06T06:47:44;5.65;;;1.90;;
72127;SDS011;60000;51.030;7.024;2023-08-06T06:50:09;4.90;;;1.70;;
72127;SDS011;60000;51.030;7.024;2023-08-06T06:52:34;4.23;;;1.70;;
72127;SDS011;60000;51.030;7.024;2023-08-06T06:55:00;4.30;;;1.80;;
72127;SDS011;60000;51.030;7.024;2023-08-06T06:57:25;4.03;;;1.40;;
72127;SDS011;60000;51.030;7.024;2023-08-06T06:59:51;3.58;;;1.40;;
72127;SDS011;60000;51.030;7.024;2023-08-06T07:02:16;4.33;;;1.70;;
72127;SDS011;60000;51.030;7.024;2023-08-06T07:04:41;4.73;;;1.80;;
72127;SDS011;60000;51.030;7.024;2023-08-06T07:07:07;5.10;;;1.80;;
72127;SDS011;60000;51.030;7.024;2023-08-06T07:09:32;4.43;;;1.63;;
72127;SDS011;60000;51.030;7.024;2023-08-06T07:11:57;3.80;;;1.70;;
72127;SDS011;60000;51.030;7.024;2023-08-06T07:14:24;4.70;;;1.97;;
72127;SDS011;60000;51.030;7.024;2023-08-06T07:16:50;4.50;;;1.85;;
72127;SDS011;60000;51.030;7.024;2023-08-06T07:19:16;4.93;;;2.03;;
72127;SDS011;60000;51.030;7.024;2023-08-06T07:21:41;3.90;;;1.60;;
72127;SDS011;60000;51.030;7.024;2023-08-06T07:24:06;5.53;;;2.10;;
72127;SDS011;60000;51.030;7.024;2023-08-06T07:26:31;3.95;;;1.67;;
72127;SDS011;60000;51.030;7.024;2023-08-06T07:28:57;4.33;;;1.47;;
72127;SDS011;60000;51.030;7.024;2023-08-06T07:31:22;3.73;;;1.60;;
72127;SDS011;60000;51.030;7.024;2023-08-06T07:33:47;3.60;;;1.50;;
72127;SDS011;60000;51.030;7.024;2023-08-06T07:36:13;3.83;;;1.70;;
72127;SDS011;60000;51.030;7.024;2023-08-06T07:38:39;4.20;;;1.80;;
72127;SDS011;60000;51.030;7.024;2023-08-06T07:41:05;4.30;;;1.93;;
72127;SDS011;60000;51.030;7.024;2023-08-06T07:43:31;4.28;;;2.03;;
72127;SDS011;60000;51.030;7.024;2023-08-06T07:45:59;5.83;;;2.33;;
72127;SDS011;60000;51.030;7.024;2023-08-06T07:48:25;4.68;;;2.00;;
72127;SDS011;60000;51.030;7.024;2023-08-06T07:50:54;5.15;;;2.40;;
72127;SDS011;60000;51.030;7.024;2023-08-06T07:53:23;6.03;;;1.93;;
72127;SDS011;60000;51.030;7.024;2023-08-06T07:55:52;4.85;;;2.40;;
72127;SDS011;60000;51.030;7.024;2023-08-06T07:58:18;4.45;;;2.00;;
72127;SDS011;60000;51.030;7.024;2023-08-06T08:00:44;5.15;;;1.92;;
72127;SDS011;60000;51.030;7.024;2023-08-06T08:03:13;4.93;;;2.07;;
72127;SDS011;60000;51.030;7.024;2023-08-06T08:05:39;3.80;;;1.48;;
72127;SDS011;60000;51.030;7.024;2023-08-06T08:08:05;3.78;;;1.60;;
72127;SDS011;60000;51.030;7.024;2023-08-06T08:10:31;5.07;;;2.07;;
72127;SDS011;60000;51.030;7.024;2023-08-06T08:12:57;4.57;;;2.00;;
72127;SDS011;60000;51.030;7.024;2023-08-06T08:15:24;4.13;;;1.83;;
72127;SDS011;60000;51.030;7.024;2023-08-06T08:17:51;4.57;;;2.10;;
72127;SDS011;60000;51.030;7.024;2023-08-06T08:20:17;4.32;;;2.10;;
72127;SDS011;60000;51.030;7.024;2023-08-06T08:22:42;4.77;;;2.00;;
72127;SDS011;60000;51.030;7.024;2023-08-06T08:25:07;5.10;;;2.20;;
72127;SDS011;60000;51.030;7.024;2023-08-06T08:27:33;5.23;;;2.60;;
72127;SDS011;60000;51.030;7.024;2023-08-06T08:29:58;5.30;;;2.20;;
72127;SDS011;60000;51.030;7.024;2023-08-06T08:32:23;4.13;;;1.70;;
72127;SDS011;60000;51.030;7.024;2023-08-06T08:34:49;4.73;;;1.67;;
72127;SDS011;60000;51.030;7.024;2023-08-06T08:37:14;4.50;;;1.50;;
72127;SDS011;60000;51.030;7.024;2023-08-06T08:39:39;3.73;;;1.50;;
72127;SDS011;60000;51.030;7.024;2023-08-06T08:42:05;3.27;;;1.30;;
72127;SDS011;60000;51.030;7.024;2023-08-06T08:44:32;3.80;;;1.83;;
72127;SDS011;60000;51.030;7.024;2023-08-06T08:46:58;3.20;;;1.60;;
72127;SDS011;60000;51.030;7.024;2023-08-06T08:49:24;4.50;;;1.50;;
72127;SDS011;60000;51.030;7.024;2023-08-06T08:51:51;3.03;;;1.45;;
72127;SDS011;60000;51.030;7.024;2023-08-06T08:54:18;3.83;;;1.50;;
72127;SDS011;60000;51.030;7.024;2023-08-06T08:56:45;4.35;;;1.80;;
72127;SDS011;60000;51.030;7.024;2023-08-06T08:59:10;3.83;;;1.60;;
72127;SDS011;60000;51.030;7.024;2023-08-06T09:01:35;3.27;;;1.47;;
72127;SDS011;60000;51.030;7.024;2023-08-06T09:04:04;3.15;;;1.40;;
72127;SDS011;60000;51.030;7.024;2023-08-06T09:06:30;4.28;;;1.92;;
72127;SDS011;60000;51.030;7.024;2023-08-06T09:09:06;4.43;;;2.05;;
72127;SDS011;60000;51.030;7.024;2023-08-06T09:11:35;4.30;;;1.80;;
72127;SDS011;60000;51.030;7.024;2023-08-06T09:14:08;4.80;;;2.08;;
72127;SDS011;60000;51.030;7.024;2023-08-06T09:16:35;4.60;;;1.90;;
72127;SDS011;60000;51.030;7.024;2023-08-06T09:19:10;4.95;;;2.17;;
72127;SDS011;60000;51.030;7.024;2023-08-06T09:21:42;5.20;;;2.10;;
72127;SDS011;60000;51.030;7.024;2023-08-06T09:26:34;5.00;;;2.13;;
72127;SDS011;60000;51.030;7.024;2023-08-06T09:28:59;4.50;;;2.00;;
72127;SDS011;60000;51.030;7.024;2023-08-06T09:31:25;4.50;;;2.27;;
72127;SDS011;60000;51.030;7.024;2023-08-06T09:33:59;5.05;;;2.38;;
72127;SDS011;60000;51.030;7.024;2023-08-06T09:36:24;4.70;;;2.22;;
72127;SDS011;60000;51.030;7.024;2023-08-06T09:38:50;5.30;;;2.33;;
72127;SDS011;60000;51.030;7.024;2023-08-06T09:41:26;4.90;;;2.10;;
72127;SDS011;60000;51.030;7.024;2023-08-06T09:43:52;5.07;;;2.33;;
72127;SDS011;60000;51.030;7.024;2023-08-06T09:46:17;5.07;;;2.30;;
72127;SDS011;60000;51.030;7.024;2023-08-06T09:48:46;5.63;;;2.70;;
72127;SDS011;60000;51.030;7.024;2023-08-06T09:51:11;5.38;;;2.67;;
72127;SDS011;60000;51.030;7.024;2023-08-06T09:53:38;4.57;;;2.30;;
72127;SDS011;60000;51.030;7.024;2023-08-06T09:56:05;7.23;;;3.13;;
72127;SDS011;60000;51.030;7.024;2023-08-06T09:58:32;4.80;;;2.20;;
72127;SDS011;60000;51.030;7.024;2023-08-06T10:00:58;4.60;;;2.10;;
72127;SDS011;60000;51.030;7.024;2023-08-06T10:03:25;5.82;;;2.90;;
72127;SDS011;60000;51.030;7.024;2023-08-06T10:05:52;6.18;;;2.38;;
72127;SDS011;60000;51.030;7.024;2023-08-06T10:08:20;7.05;;;3.08;;
72127;SDS011;60000;51.030;7.024;2023-08-06T10:10:45;5.60;;;2.47;;
72127;SDS011;60000;51.030;7.024;2023-08-06T10:13:11;7.20;;;2.60;;
72127;SDS011;60000;51.030;7.024;2023-08-06T10:15:38;6.75;;;2.50;;
72127;SDS011;60000;51.030;7.024;2023-08-06T10:18:04;4.97;;;1.80;;
72127;SDS011;60000;51.030;7.024;2023-08-06T10:20:34;4.10;;;1.70;;
72127;SDS011;60000;51.030;7.024;2023-08-06T10:23:00;3.40;;;1.30;;
72127;SDS011;60000;51.030;7.024;2023-08-06T10:25:31;2.75;;;1.05;;
72127;SDS011;60000;51.030;7.024;2023-08-06T10:27:58;2.70;;;1.00;;
72127;SDS011;60000;51.030;7.024;2023-08-06T10:30:30;3.00;;;1.03;;
72127;SDS011;60000;51.030;7.024;2023-08-06T10:32:57;2.90;;;1.20;;
72127;SDS011;60000;51.030;7.024;2023-08-06T10:35:42;1.48;;;0.70;;
72127;SDS011;60000;51.030;7.024;2023-08-06T10:38:16;4.57;;;1.00;;
72127;SDS011;60000;51.030;7.024;2023-08-06T10:43:26;3.03;;;0.97;;
72127;SDS011;60000;51.030;7.024;2023-08-06T10:45:52;3.38;;;0.90;;
72127;SDS011;60000;51.030;7.024;2023-08-06T10:48:36;3.10;;;1.27;;
72127;SDS011;60000;51.030;7.024;2023-08-06T10:51:11;3.08;;;1.40;;
72127;SDS011;60000;51.030;7.024;2023-08-06T10:53:47;4.55;;;1.40;;
72127;SDS011;60000;51.030;7.024;2023-08-06T10:56:15;3.38;;;1.50;;
72127;SDS011;60000;51.030;7.024;2023-08-06T10:58:44;4.07;;;1.58;;
72127;SDS011;60000;51.030;7.024;2023-08-06T11:01:11;5.37;;;1.60;;
72127;SDS011;60000;51.030;7.024;2023-08-06T11:03:37;3.93;;;1.37;;
72127;SDS011;60000;51.030;7.024;2023-08-06T11:06:03;4.28;;;1.50;;
72127;SDS011;60000;51.030;7.024;2023-08-06T11:08:32;3.95;;;1.40;;
72127;SDS011;60000;51.030;7.024;2023-08-06T11:11:08;2.95;;;1.10;;
72127;SDS011;60000;51.030;7.024;2023-08-06T11:13:47;5.35;;;1.30;;
72127;SDS011;60000;51.030;7.024;2023-08-06T11:16:17;6.10;;;1.40;;
72127;SDS011;60000;51.030;7.024;2023-08-06T11:18:44;4.10;;;1.25;;
72127;SDS011;60000;51.030;7.024;2023-08-06T11:21:09;4.65;;;1.40;;
72127;SDS011;60000;51.030;7.024;2023-08-06T11:23:37;4.38;;;1.50;;
72127;SDS011;60000;51.030;7.024;2023-08-06T11:26:02;5.13;;;1.50;;
72127;SDS011;60000;51.030;7.024;2023-08-06T11:28:28;5.50;;;1.70;;
72127;SDS011;60000;51.030;7.024;2023-08-06T11:30:53;4.53;;;1.43;;
72127;SDS011;60000;51.030;7.024;2023-08-06T11:35:48;4.25;;;1.60;;
72127;SDS011;60000;51.030;7.024;2023-08-06T11:38:14;4.53;;;1.73;;
72127;SDS011;60000;51.030;7.024;2023-08-06T11:40:39;6.18;;;2.00;;
72127;SDS011;60000;51.030;7.024;2023-08-06T11:43:07;6.47;;;2.30;;
72127;SDS011;60000;51.030;7.024;2023-08-06T11:45:34;5.55;;;1.80;;
72127;SDS011;60000;51.030;7.024;2023-08-06T11:48:00;4.95;;;1.60;;
72127;SDS011;60000;51.030;7.024;2023-08-06T11:50:26;5.63;;;1.80;;
72127;SDS011;60000;51.030;7.024;2023-08-06T11:52:56;8.43;;;1.97;;
72127;SDS011;60000;51.030;7.024;2023-08-06T11:55:23;8.57;;;2.38;;
72127;SDS011;60000;51.030;7.024;2023-08-06T11:57:49;6.47;;;1.88;;
72127;SDS011;60000;51.030;7.024;2023-08-06T12:00:15;5.80;;;1.90;;
72127;SDS011;60000;51.030;7.024;2023-08-06T12:02:43;7.20;;;2.40;;
72127;SDS011;60000;51.030;7.024;2023-08-06T12:07:39;7.73;;;2.50;;
72127;SDS011;60000;51.030;7.024;2023-08-06T12:10:06;9.00;;;2.70;;
72127;SDS011;60000;51.030;7.024;2023-08-06T12:12:32;9.53;;;2.80;;
72127;SDS011;60000;51.030;7.024;2023-08-06T12:14:58;9.05;;;2.70;;
72127;SDS011;60000;51.030;7.024;2023-08-06T12:17:24;7.10;;;2.30;;
72127;SDS011;60000;51.030;7.024;2023-08-06T12:19:50;8.45;;;2.33;;
72127;SDS011;60000;51.030;7.024;2023-08-06T12:22:15;7.20;;;2.00;;
72127;SDS011;60000;51.030;7.024;2023-08-06T12:24:45;7.47;;;2.20;;
72127;SDS011;60000;51.030;7.024;2023-08-06T12:27:11;9.02;;;2.20;;
72127;SDS011;60000;51.030;7.024;2023-08-06T12:29:47;7.30;;;2.00;;
72127;SDS011;60000;51.030;7.024;2023-08-06T12:32:13;5.40;;;2.13;;
72127;SDS011;60000;51.030;7.024;2023-08-06T12:34:40;6.97;;;2.20;;
72127;SDS011;60000;51.030;7.024;2023-08-06T12:37:06;7.45;;;2.00;;
72127;SDS011;60000;51.030;7.024;2023-08-06T12:39:32;6.82;;;2.08;;
72127;SDS011;60000;51.030;7.024;2023-08-06T12:41:59;4.80;;;2.00;;
72127;SDS011;60000;51.030;7.024;2023-08-06T12:44:24;7.55;;;2.58;;
72127;SDS011;60000;51.030;7.024;2023-08-06T12:46:51;6.10;;;2.20;;
72127;SDS011;60000;51.030;7.024;2023-08-06T12:49:17;6.78;;;2.00;;
72127;SDS011;60000;51.030;7.024;2023-08-06T12:51:43;6.38;;;1.90;;
72127;SDS011;60000;51.030;7.024;2023-08-06T12:54:08;5.90;;;2.23;;
72127;SDS011;60000;51.030;7.024;2023-08-06T12:56:33;6.50;;;2.17;;
72127;SDS011;60000;51.030;7.024;2023-08-06T12:58:59;5.60;;;2.08;;
72127;SDS011;60000;51.030;7.024;2023-08-06T13:01:24;6.00;;;1.73;;
72127;SDS011;60000;51.030;7.024;2023-08-06T13:03:50;4.70;;;1.70;;
72127;SDS011;60000;51.030;7.024;2023-08-06T13:06:15;7.43;;;1.90;;
72127;SDS011;60000;51.030;7.024;2023-08-06T13:08:40;6.78;;;1.92;;
72127;SDS011;60000;51.030;7.024;2023-08-06T13:11:06;5.37;;;2.10;;
72127;SDS011;60000;51.030;7.024;2023-08-06T13:13:31;4.97;;;1.90;;
72127;SDS011;60000;51.030;7.024;2023-08-06T13:15:56;5.37;;;2.03;;
72127;SDS011;60000;51.030;7.024;2023-08-06T13:18:22;5.20;;;1.90;;
72127;SDS011;60000;51.030;7.024;2023-08-06T13:20:47;6.73;;;2.30;;
72127;SDS011;60000;51.030;7.024;2023-08-06T13:23:14;5.32;;;2.00;;
72127;SDS011;60000;51.030;7.024;2023-08-06T13:25:41;6.75;;;1.98;;
72127;SDS011;60000;51.030;7.024;2023-08-06T13:28:07;6.40;;;2.10;;
72127;SDS011;60000;51.030;7.024;2023-08-06T13:30:33;6.07;;;2.10;;
72127;SDS011;60000;51.030;7.024;2023-08-06T13:33:00;4.43;;;1.60;;
72127;SDS011;60000;51.030;7.024;2023-08-06T13:35:26;5.88;;;1.98;;
72127;SDS011;60000;51.030;7.024;2023-08-06T13:37:51;5.27;;;1.73;;
72127;SDS011;60000;51.030;7.024;2023-08-06T13:40:17;5.75;;;2.03;;
72127;SDS011;60000;51.030;7.024;2023-08-06T13:42:42;6.40;;;1.53;;
72127;SDS011;60000;51.030;7.024;2023-08-06T13:45:07;7.17;;;1.93;;
72127;SDS011;60000;51.030;7.024;2023-08-06T13:47:33;5.03;;;1.80;;
72127;SDS011;60000;51.030;7.024;2023-08-06T13:49:59;8.33;;;2.23;;
72127;SDS011;60000;51.030;7.024;2023-08-06T13:52:27;7.00;;;3.23;;
72127;SDS011;60000;51.030;7.024;2023-08-06T13:54:52;6.85;;;3.40;;
72127;SDS011;60000;51.030;7.024;2023-08-06T13:57:18;6.77;;;2.47;;
72127;SDS011;60000;51.030;7.024;2023-08-06T13:59:43;7.30;;;3.17;;
72127;SDS011;60000;51.030;7.024;2023-08-06T14:02:09;8.10;;;2.90;;
72127;SDS011;60000;51.030;7.024;2023-08-06T14:04:35;5.70;;;2.20;;
72127;SDS011;60000;51.030;7.024;2023-08-06T14:07:02;7.40;;;2.65;;
72127;SDS011;60000;51.030;7.024;2023-08-06T14:09:28;7.03;;;3.70;;
72127;SDS011;60000;51.030;7.024;2023-08-06T14:11:53;8.90;;;3.13;;
72127;SDS011;60000;51.030;7.024;2023-08-06T14:14:18;5.63;;;2.70;;
72127;SDS011;60000;51.030;7.024;2023-08-06T14:16:45;6.35;;;2.85;;
72127;SDS011;60000;51.030;7.024;2023-08-06T14:19:10;8.53;;;2.70;;
72127;SDS011;60000;51.030;7.024;2023-08-06T14:21:36;10.83;;;4.33;;
72127;SDS011;60000;51.030;7.024;2023-08-06T14:24:01;12.40;;;5.30;;
72127;SDS011;60000;51.030;7.024;2023-08-06T14:26:26;10.37;;;4.37;;
72127;SDS011;60000;51.030;7.024;2023-08-06T14:28:51;14.60;;;6.13;;
72127;SDS011;60000;51.030;7.024;2023-08-06T14:31:19;10.85;;;4.38;;
72127;SDS011;60000;51.030;7.024;2023-08-06T14:33:45;10.07;;;3.60;;
72127;SDS011;60000;51.030;7.024;2023-08-06T14:36:11;8.27;;;3.23;;
72127;SDS011;60000;51.030;7.024;2023-08-06T14:38:36;7.60;;;2.40;;
72127;SDS011;60000;51.030;7.024;2023-08-06T14:41:01;6.43;;;2.40;;
72127;SDS011;60000;51.030;7.024;2023-08-06T14:43:26;7.50;;;2.33;;
72127;SDS011;60000;51.030;7.024;2023-08-06T14:45:52;8.32;;;2.78;;
72127;SDS011;60000;51.030;7.024;2023-08-06T14:48:17;11.33;;;4.80;;
72127;SDS011;60000;51.030;7.024;2023-08-06T14:50:44;8.90;;;3.70;;
72127;SDS011;60000;51.030;7.024;2023-08-06T14:53:09;8.27;;;2.97;;
72127;SDS011;60000;51.030;7.024;2023-08-06T14:55:36;7.50;;;2.17;;
72127;SDS011;60000;51.030;7.024;2023-08-06T14:58:02;8.18;;;2.08;;